Baltimore, MD

12:36 AM EDT on July 04, 2015 (GMT -0400)
Federal Hill South | | Change Station
CLOSE
Current Station
Personal Weather Station
Location: Baltimore, MD
Elevation: 62 ft
Nearby Weather Stations
Active Advisory: Coastal Flood Advisory

Elev 62 ft 39.27 °N, 76.61 °W | Updated 7 minutes ago

Overcast
Overcast
75.0 °F
Feels Like 73 °F
N
6.3
Wind Variable Wind from SSE

Today
High -- | Low -- °F
--% Chance of Precip.
Yesterday
High -- | Low -- °F
Precip. -- in
5:45 AM 8:36 PM
Waning Gibbous, 94% visible
Pressure 29.94 in
Visibility 9.0 miles
Clouds Overcast 6500 ft
Heat Index 73 °F
Dew Point 74 °F
Humidity 98%
Rainfall 0.00 in
Snow Depth Not available.
UV 0 out of 12
Pollen .50 out of 12
Air Quality Not available.
Flu Activity Not available.
METAR KBWI 040354Z 13004KT 9SM OVC065 22/18 A2994 RMK AO2 SLP136 T02220183

More Conditions Fewer Conditions

Pressure 29.94 in
Visibility 9.0 miles
Clouds Overcast 6500 ft
Heat Index 73 °F
Dew Point 74 °F
Humidity 98%
Rainfall 0.00 in
Snow Depth Not available.
UV 0 out of 12
Pollen .50 out of 12
Air Quality Not available.
Flu Activity Not available.
METAR KBWI 040354Z 13004KT 9SM OVC065 22/18 A2994 RMK AO2 SLP136 T02220183

More Conditions Fewer Conditions

10-Day Weather Forecast

×

Almanac

Astronomy

Jul. 04, 2015 Rise Set
Actual Time
Civil Twilight
Nautical Twilight
Astronomical Twilight
Moon
Length of Visible Light
Length of Day
Tomorrow will be .
, % of the Moon is Illuminated

Today's Extremes

State Highs State Lows

Community

WunderPhotos

Upload Photos

1,834,931 photos uploaded!

WunderBlogs® & News

Nearby

Air Quality

  Air Quality AQ Index Pollutant
Not available.

Snow Depth

Station Depth Elevation

Earthquake Activity

City Distance Mag. Time & Date
Minimum magnitude displayed is 2.5.

Coastal Water Temperatures

Place Temperature

Stations

Nearby Weather Stations

Station Location Temp. Windchill Dew Point Humidity Wind Precip. Elev Updated Type
                   
Coastal Flood Advisory
Statement as of 7:30 PM EDT on July 03, 2015

... Coastal Flood Advisory in effect from 5 am to noon EDT
Saturday...

The National Weather Service in Baltimore MD/Washington has
issued a coastal Flood Advisory... which is in effect from 5 am to
noon EDT Saturday.

* Tidal anomaly... increasing to around one-foot above normal.

* Timing... around high tide Saturday morning.

* Expected impacts... minor shoreline inundation.

Here are the times of the next high tides
for a few locations from north to south...
on the Chesapeake Bay...
Bowley Bar... 10:09 am...
Fort McHenry Baltimore... 8:56 am...
Annapolis U.S. Naval Academy... 7:38 am...

Now along the Potomac River...
Washington Channel... 10:13 am...
Alexandria... 10:31 am...
Indian Head... 9:59 am...

Precautionary/preparedness actions...

A coastal Flood Advisory indicates that onshore winds and tides
will combine to generate flooding of low areas along the shore.